createdAt,value
2019-03-23T00:00:20.019Z,17.37
2019-03-23T00:02:48.230Z,18.50
2019-03-23T00:05:16.424Z,17.77
2019-03-23T00:07:46.177Z,18.37
2019-03-23T00:10:14.366Z,17.97
2019-03-23T00:12:42.588Z,18.83
2019-03-23T00:15:11.119Z,18.40
2019-03-23T00:17:39.408Z,17.27
2019-03-23T00:20:07.847Z,18.57
2019-03-23T00:22:36.206Z,20.23
2019-03-23T00:25:04.937Z,18.87
2019-03-23T00:27:34.221Z,17.07
2019-03-23T00:30:02.487Z,17.73
2019-03-23T00:32:31.005Z,19.27
2019-03-23T00:34:59.218Z,19.10
2019-03-23T00:37:27.674Z,18.93
2019-03-23T00:39:57.890Z,18.43
2019-03-23T00:42:26.117Z,18.50
2019-03-23T00:44:54.587Z,19.80
2019-03-23T00:47:22.779Z,17.73
2019-03-23T00:49:51.066Z,20.43
2019-03-23T00:52:19.830Z,19.33
2019-03-23T00:54:48.302Z,18.37
2019-03-23T00:57:16.498Z,17.80
2019-03-23T00:59:44.769Z,19.47
2019-03-23T01:02:13.222Z,19.93
2019-03-23T01:04:41.492Z,16.93
2019-03-23T01:07:10.342Z,18.10
2019-03-23T01:09:38.535Z,19.83
2019-03-23T01:12:07.010Z,16.67
2019-03-23T01:14:35.273Z,19.40
2019-03-23T01:17:03.493Z,17.47
2019-03-23T01:19:31.774Z,20.40
2019-03-23T01:22:00.046Z,18.30
2019-03-23T01:24:28.236Z,18.37
2019-03-23T01:26:56.462Z,19.20
2019-03-23T01:29:24.683Z,18.27
2019-03-23T01:31:52.947Z,19.80
2019-03-23T01:34:21.298Z,19.07
2019-03-23T01:36:49.562Z,18.60
2019-03-23T01:39:17.777Z,18.93
2019-03-23T01:41:46.048Z,18.20
2019-03-23T01:44:14.341Z,18.80
2019-03-23T01:46:42.701Z,19.13
2019-03-23T01:49:11.053Z,18.70
2019-03-23T01:51:40.386Z,18.80
2019-03-23T01:54:09.465Z,18.93
2019-03-23T01:56:37.653Z,20.07
2019-03-23T01:59:06.790Z,18.30
2019-03-23T02:01:35.246Z,17.80
2019-03-23T02:04:03.790Z,18.33
2019-03-23T02:06:31.980Z,19.07
2019-03-23T02:09:00.274Z,18.67
2019-03-23T02:11:28.605Z,19.40
2019-03-23T02:13:56.793Z,18.70
2019-03-23T02:16:25.010Z,18.90
2019-03-23T02:18:53.274Z,16.83
2019-03-23T02:21:21.489Z,17.70
2019-03-23T02:23:49.673Z,17.63
2019-03-23T02:26:17.885Z,16.77
2019-03-23T02:28:46.073Z,18.70
2019-03-23T02:31:14.293Z,18.47
2019-03-23T02:33:42.563Z,18.10
2019-03-23T02:36:10.855Z,19.83
2019-03-23T02:38:39.118Z,18.90
2019-03-23T02:41:08.094Z,17.40
2019-03-23T02:43:36.310Z,16.63
2019-03-23T02:46:04.576Z,17.37
2019-03-23T02:48:32.866Z,17.43
2019-03-23T02:51:01.139Z,19.60
2019-03-23T02:53:29.425Z,17.60
2019-03-23T02:55:57.690Z,18.90
2019-03-23T02:58:25.981Z,17.70
2019-03-23T03:00:54.171Z,17.77
2019-03-23T03:03:22.458Z,17.40
2019-03-23T03:05:50.724Z,17.53
2019-03-23T03:08:19.015Z,19.20
2019-03-23T03:10:47.208Z,17.70
2019-03-23T03:13:15.466Z,17.67
2019-03-23T03:15:43.686Z,17.20
2019-03-23T03:18:12.736Z,17.47
2019-03-23T03:20:41.034Z,18.37
2019-03-23T03:23:09.293Z,19.20
2019-03-23T03:25:37.819Z,16.93
2019-03-23T03:28:06.082Z,19.23
2019-03-23T03:30:35.589Z,17.77
2019-03-23T03:33:03.887Z,16.50
2019-03-23T03:35:33.006Z,18.93
2019-03-23T03:38:01.274Z,18.47
2019-03-23T03:40:29.651Z,18.10
2019-03-23T03:42:57.848Z,17.97
2019-03-23T03:45:26.886Z,18.03
2019-03-23T03:47:55.171Z,17.47
2019-03-23T03:50:23.439Z,17.67
2019-03-23T03:52:51.734Z,19.00
2019-03-23T03:55:20.001Z,17.10
2019-03-23T03:57:48.278Z,19.20
2019-03-23T04:00:18.113Z,18.57
2019-03-23T04:02:46.375Z,18.47
2019-03-23T04:05:14.673Z,17.20
2019-03-23T04:07:42.939Z,17.57
2019-03-23T04:10:11.219Z,16.67
2019-03-23T04:12:40.559Z,19.20
2019-03-23T04:15:09.979Z,20.10
2019-03-23T04:17:40.022Z,18.37
2019-03-23T04:20:08.984Z,17.60
2019-03-23T04:22:37.249Z,18.50
2019-03-23T04:25:06.297Z,17.83
2019-03-23T04:27:34.494Z,15.50
2019-03-23T04:30:02.882Z,17.70
2019-03-23T04:32:31.645Z,18.63
2019-03-23T04:34:59.914Z,17.20
2019-03-23T04:37:28.209Z,16.97
2019-03-23T04:39:56.479Z,16.63
2019-03-23T04:42:24.770Z,18.30
2019-03-23T04:44:53.029Z,18.17
2019-03-23T04:47:21.318Z,17.73
2019-03-23T04:49:49.508Z,17.83
2019-03-23T04:52:17.802Z,18.80
2019-03-23T04:54:45.998Z,17.00
2019-03-23T04:57:15.065Z,18.67
2019-03-23T04:59:43.257Z,17.70
2019-03-23T05:02:11.483Z,19.00
2019-03-23T05:04:39.755Z,18.40
2019-03-23T05:07:08.065Z,18.80
2019-03-23T05:09:36.258Z,16.93
2019-03-23T05:12:04.585Z,17.53
2019-03-23T05:14:32.797Z,18.50
2019-03-23T05:17:00.985Z,16.70
2019-03-23T05:19:29.218Z,16.33
2019-03-23T05:21:57.414Z,17.53
2019-03-23T05:24:25.694Z,16.60
2019-03-23T05:26:54.750Z,17.07
2019-03-23T05:29:22.980Z,18.00
2019-03-23T05:31:51.231Z,17.43
2019-03-23T05:34:19.524Z,16.30
2019-03-23T05:36:47.718Z,16.90
2019-03-23T05:39:16.010Z,18.60
2019-03-23T05:41:44.203Z,17.37
2019-03-23T05:44:13.053Z,17.00
2019-03-23T05:46:41.247Z,17.83
2019-03-23T05:49:09.557Z,16.63
2019-03-23T05:51:38.317Z,18.53
2019-03-23T05:54:06.504Z,18.10
2019-03-23T05:56:34.721Z,16.77
2019-03-23T05:59:03.243Z,17.80
2019-03-23T06:01:31.782Z,16.83
2019-03-23T06:04:01.984Z,18.10
2019-03-23T06:06:29.985Z,17.60
2019-03-23T06:08:58.173Z,17.23
2019-03-23T06:11:26.389Z,17.80
2019-03-23T06:13:54.901Z,17.50
2019-03-23T06:16:23.209Z,16.87
2019-03-23T06:18:51.718Z,17.17
2019-03-23T06:21:19.998Z,16.70
2019-03-23T06:23:48.288Z,19.23
2019-03-23T06:26:16.560Z,18.50
2019-03-23T06:28:45.006Z,16.67
2019-03-23T06:31:15.290Z,17.80
2019-03-23T06:33:43.580Z,18.30
2019-03-23T06:36:12.108Z,19.10
2019-03-23T06:38:40.956Z,18.20
2019-03-23T06:41:09.477Z,19.13
2019-03-23T06:43:37.807Z,17.73
2019-03-23T06:46:06.081Z,18.87
2019-03-23T06:48:34.378Z,19.77
2019-03-23T06:51:03.402Z,18.37
2019-03-23T06:53:31.717Z,19.50
2019-03-23T06:55:59.946Z,20.43
2019-03-23T06:58:28.439Z,18.83
2019-03-23T07:00:56.725Z,20.50
2019-03-23T07:03:24.925Z,19.80
2019-03-23T07:05:53.402Z,19.20
2019-03-23T07:08:31.545Z,21.63
2019-03-23T07:10:53.958Z,21.40
2019-03-23T07:13:22.314Z,21.10
2019-03-23T07:15:50.541Z,20.97
2019-03-23T07:18:18.806Z,20.67
2019-03-23T07:20:47.022Z,21.40
2019-03-23T07:23:15.282Z,20.37
2019-03-23T07:25:43.573Z,20.07
2019-03-23T07:28:12.909Z,19.80
2019-03-23T07:30:41.103Z,20.30
2019-03-23T07:33:10.178Z,21.37
2019-03-23T07:35:38.438Z,20.10
2019-03-23T07:38:07.590Z,20.83
2019-03-23T07:40:35.862Z,19.93
2019-03-23T07:43:04.146Z,20.03
2019-03-23T07:45:32.339Z,19.47
2019-03-23T07:48:00.631Z,19.67
2019-03-23T07:50:28.963Z,19.50
2019-03-23T07:52:57.254Z,21.53
2019-03-23T07:55:25.515Z,20.10
2019-03-23T07:57:53.734Z,20.23
2019-03-23T08:00:22.371Z,22.30
2019-03-23T08:02:50.629Z,20.53
2019-03-23T08:05:18.918Z,19.57
2019-03-23T08:07:47.190Z,19.47
2019-03-23T08:10:29.039Z,21.43
2019-03-23T08:12:57.534Z,20.23
2019-03-23T08:15:26.094Z,20.40
2019-03-23T08:17:54.734Z,21.10
2019-03-23T08:20:25.150Z,20.67
2019-03-23T08:22:53.882Z,20.20
2019-03-23T08:25:22.170Z,18.30
2019-03-23T08:27:50.473Z,20.57
2019-03-23T08:30:18.686Z,21.93
2019-03-23T08:32:46.885Z,19.53
2019-03-23T08:35:15.158Z,19.73
2019-03-23T08:37:43.446Z,20.43
2019-03-23T08:40:11.895Z,18.77
2019-03-23T08:42:40.182Z,21.47
2019-03-23T08:45:09.028Z,20.13
2019-03-23T08:47:37.558Z,19.43
2019-03-23T08:50:06.223Z,19.93
2019-03-23T08:52:34.522Z,19.47
2019-03-23T08:55:03.577Z,21.00
2019-03-23T08:57:31.793Z,19.47
2019-03-23T08:59:59.985Z,18.60
2019-03-23T09:02:28.209Z,20.57
2019-03-23T09:04:56.469Z,20.37
2019-03-23T09:07:24.778Z,20.30
2019-03-23T09:09:59.189Z,20.23
2019-03-23T09:12:22.889Z,20.50
2019-03-23T09:14:51.174Z,19.13
2019-03-23T09:17:19.369Z,19.93
2019-03-23T09:19:47.658Z,20.87
2019-03-23T09:22:15.918Z,19.70
2019-03-23T09:24:44.134Z,20.77
2019-03-23T09:27:12.724Z,18.20
2019-03-23T09:29:41.009Z,21.33
2019-03-23T09:32:09.193Z,20.43
2019-03-23T09:34:37.410Z,20.37
2019-03-23T09:37:05.611Z,18.37
2019-03-23T09:39:33.874Z,21.30
2019-03-23T09:42:02.165Z,21.00
2019-03-23T09:44:30.425Z,21.07
2019-03-23T09:46:59.398Z,21.40
2019-03-23T09:49:27.585Z,21.47
2019-03-23T09:51:55.801Z,21.23
2019-03-23T09:54:23.990Z,21.13
2019-03-23T09:56:52.210Z,22.33
2019-03-23T09:59:20.401Z,21.00
2019-03-23T10:01:48.598Z,21.03
2019-03-23T10:04:16.885Z,23.67
2019-03-23T10:06:46.874Z,23.77
2019-03-23T10:09:16.107Z,24.20
2019-03-23T10:11:44.382Z,22.00
2019-03-23T10:14:12.669Z,22.40
2019-03-23T10:16:40.937Z,21.60
2019-03-23T10:19:09.150Z,22.40
2019-03-23T10:21:37.460Z,23.27
2019-03-23T10:24:05.746Z,24.23
2019-03-23T10:26:33.945Z,23.90
2019-03-23T10:29:02.486Z,25.03
2019-03-23T10:31:32.083Z,25.17
2019-03-23T10:34:00.354Z,24.63
2019-03-23T10:36:28.575Z,25.90
2019-03-23T10:38:58.555Z,27.20
2019-03-23T10:41:26.850Z,27.27
2019-03-23T10:43:55.109Z,26.60
2019-03-23T10:46:25.164Z,26.27
2019-03-23T10:48:53.450Z,28.03
2019-03-23T10:51:21.753Z,27.07
2019-03-23T10:53:51.489Z,25.77
2019-03-23T10:56:19.701Z,25.10
2019-03-23T10:58:47.893Z,24.57
2019-03-23T11:01:16.241Z,28.40
2019-03-23T11:03:44.438Z,25.77
2019-03-23T11:06:12.630Z,27.57
2019-03-23T11:08:41.112Z,27.57
2019-03-23T11:11:09.375Z,27.50
2019-03-23T11:13:39.702Z,25.80
2019-03-23T11:16:07.961Z,27.20
2019-03-23T11:18:37.746Z,27.70
2019-03-23T11:21:06.155Z,29.73
2019-03-23T11:23:34.449Z,26.13
2019-03-23T11:26:02.710Z,28.83
2019-03-23T11:28:30.935Z,27.50
2019-03-23T11:30:59.122Z,28.20
2019-03-23T11:33:27.417Z,28.47
2019-03-23T11:35:57.984Z,28.57
2019-03-23T11:38:25.910Z,28.63
2019-03-23T11:40:55.368Z,28.80
2019-03-23T11:43:23.637Z,30.03
2019-03-23T11:45:52.418Z,28.60
2019-03-23T11:48:20.611Z,31.20
2019-03-23T11:50:49.089Z,29.60
2019-03-23T11:53:17.285Z,27.83
2019-03-23T11:55:45.501Z,28.97
2019-03-23T11:58:14.035Z,30.93
2019-03-23T12:00:42.317Z,31.60
2019-03-23T12:03:10.521Z,30.27
2019-03-23T12:05:41.074Z,29.27
2019-03-23T12:08:09.350Z,31.07
2019-03-23T12:10:38.774Z,29.50
2019-03-23T12:13:07.064Z,29.20
2019-03-23T12:15:35.908Z,28.97
2019-03-23T12:18:04.258Z,32.13
2019-03-23T12:20:33.025Z,28.30
2019-03-23T12:23:01.309Z,30.27
2019-03-23T12:25:29.502Z,29.37
2019-03-23T12:27:57.798Z,29.03
2019-03-23T12:30:26.063Z,30.90
2019-03-23T12:32:54.286Z,28.97
2019-03-23T12:35:22.571Z,29.00
2019-03-23T12:37:50.839Z,28.17
2019-03-23T12:40:19.050Z,29.43
2019-03-23T12:42:47.243Z,29.10
2019-03-23T12:45:15.701Z,28.70
2019-03-23T12:47:43.897Z,28.60
2019-03-23T12:50:12.185Z,26.37
2019-03-23T12:52:40.453Z,29.07
2019-03-23T12:55:09.022Z,28.87
2019-03-23T12:57:37.530Z,25.37
2019-03-23T13:00:08.038Z,26.87
2019-03-23T13:02:36.261Z,26.40
2019-03-23T13:05:05.782Z,26.43
2019-03-23T13:07:34.070Z,24.30
2019-03-23T13:10:02.342Z,25.77
2019-03-23T13:12:30.672Z,24.73
2019-03-23T13:14:58.901Z,25.13
2019-03-23T13:17:27.125Z,25.43
2019-03-23T13:19:55.399Z,23.70
2019-03-23T13:22:23.655Z,28.53
2019-03-23T13:24:51.922Z,25.23
2019-03-23T13:27:20.192Z,25.23
2019-03-23T13:29:48.485Z,24.60
2019-03-23T13:32:16.748Z,24.77
2019-03-23T13:34:44.965Z,25.07
2019-03-23T13:37:13.413Z,29.00
2019-03-23T13:39:41.633Z,26.20
2019-03-23T13:42:10.166Z,23.73
2019-03-23T13:44:38.386Z,23.40
2019-03-23T13:47:06.654Z,23.40
2019-03-23T13:49:34.926Z,24.80
2019-03-23T13:52:03.389Z,24.13
2019-03-23T13:54:31.655Z,23.00
2019-03-23T13:57:00.174Z,21.57
2019-03-23T13:59:28.441Z,24.03
2019-03-23T14:01:56.661Z,22.07
2019-03-23T14:04:24.925Z,22.23
2019-03-23T14:06:53.147Z,21.70
2019-03-23T14:09:21.421Z,23.97
2019-03-23T14:11:54.825Z,21.93
2019-03-23T14:14:19.728Z,22.73
2019-03-23T14:16:49.461Z,23.77
2019-03-23T14:19:17.678Z,23.40
2019-03-23T14:21:45.873Z,23.67
2019-03-23T14:24:14.162Z,23.50
2019-03-23T14:26:42.362Z,21.10
2019-03-23T14:29:10.658Z,22.03
2019-03-23T14:31:39.104Z,22.40
2019-03-23T14:34:09.285Z,22.27
2019-03-23T14:36:37.485Z,21.50
2019-03-23T14:39:06.143Z,23.07
2019-03-23T14:41:34.333Z,21.77
2019-03-23T14:44:02.590Z,22.20
2019-03-23T14:46:30.806Z,22.93
2019-03-23T14:49:01.888Z,22.93
2019-03-23T14:51:29.031Z,20.53
2019-03-23T14:53:57.297Z,22.07
2019-03-23T14:56:25.587Z,22.57
2019-03-23T14:58:54.034Z,23.23
2019-03-23T15:01:22.319Z,24.03
2019-03-23T15:03:50.581Z,22.63
2019-03-23T15:06:18.798Z,23.33
2019-03-23T15:08:48.022Z,23.00
2019-03-23T15:11:16.263Z,23.33
2019-03-23T15:13:45.245Z,24.83
2019-03-23T15:16:13.504Z,23.60
2019-03-23T15:18:41.717Z,24.13
2019-03-23T15:21:09.909Z,23.47
2019-03-23T15:23:38.124Z,23.67
2019-03-23T15:26:06.334Z,24.67
2019-03-23T15:28:34.558Z,26.90
2019-03-23T15:31:02.827Z,23.50
2019-03-23T15:33:31.050Z,24.90
2019-03-23T15:35:59.242Z,23.53
2019-03-23T15:38:27.459Z,23.63
2019-03-23T15:40:55.725Z,25.77
2019-03-23T15:43:24.016Z,23.93
2019-03-23T15:45:52.205Z,22.70
2019-03-23T15:48:20.393Z,24.67
2019-03-23T15:50:48.613Z,26.37
2019-03-23T15:53:16.810Z,24.10
2019-03-23T15:55:45.107Z,24.97
2019-03-23T15:58:13.380Z,42.90
2019-03-23T16:00:41.667Z,25.50
2019-03-23T16:03:09.870Z,24.67
2019-03-23T16:05:38.157Z,30.60
2019-03-23T16:08:06.349Z,24.20
2019-03-23T16:10:35.359Z,23.80
2019-03-23T16:13:03.698Z,25.27
2019-03-23T16:15:31.987Z,26.63
2019-03-23T16:18:01.624Z,26.37
2019-03-23T16:20:30.030Z,24.00
2019-03-23T16:22:58.321Z,25.80
2019-03-23T16:25:26.510Z,24.13
2019-03-23T16:27:54.725Z,25.70
2019-03-23T16:30:24.459Z,26.10
2019-03-23T16:32:52.864Z,25.37
2019-03-23T16:35:21.125Z,27.47
2019-03-23T16:37:49.346Z,26.03
2019-03-23T16:40:17.609Z,25.77
2019-03-23T16:42:45.919Z,25.83
2019-03-23T16:45:14.260Z,25.40
2019-03-23T16:47:42.532Z,25.10
2019-03-23T16:50:12.367Z,27.30
2019-03-23T16:52:40.625Z,27.00
2019-03-23T16:55:09.309Z,26.03
2019-03-23T16:57:37.689Z,25.77
2019-03-23T17:00:07.141Z,27.87
2019-03-23T17:02:36.410Z,28.87
2019-03-23T17:05:05.297Z,29.00
2019-03-23T17:07:35.582Z,28.53
2019-03-23T17:10:04.837Z,26.30
2019-03-23T17:12:33.038Z,27.27
2019-03-23T17:15:01.281Z,28.33
2019-03-23T17:17:29.475Z,28.50
2019-03-23T17:19:59.111Z,27.53
2019-03-23T17:22:27.405Z,27.47
2019-03-23T17:24:55.610Z,26.80
2019-03-23T17:27:23.829Z,32.57
2019-03-23T17:29:53.975Z,36.90
2019-03-23T17:32:22.626Z,34.57
2019-03-23T17:34:51.132Z,28.80
2019-03-23T17:37:19.431Z,28.10
2019-03-23T17:39:49.230Z,29.50
2019-03-23T17:42:17.456Z,28.37
2019-03-23T17:44:46.276Z,28.53
2019-03-23T17:47:14.605Z,28.73
2019-03-23T17:49:42.813Z,28.27
2019-03-23T17:52:11.130Z,28.93
2019-03-23T17:54:40.533Z,28.07
2019-03-23T17:57:09.814Z,27.10
2019-03-23T17:59:39.174Z,29.00
2019-03-23T18:02:09.010Z,28.10
2019-03-23T18:04:37.234Z,27.80
2019-03-23T18:07:05.427Z,28.07
2019-03-23T18:09:33.732Z,26.97
2019-03-23T18:12:01.928Z,27.40
2019-03-23T18:14:30.210Z,26.83
2019-03-23T18:16:58.390Z,28.60
2019-03-23T18:19:26.686Z,28.00
2019-03-23T18:21:54.949Z,26.57
2019-03-23T18:24:23.161Z,27.60
2019-03-23T18:26:52.126Z,28.23
2019-03-23T18:29:20.407Z,27.63
2019-03-23T18:31:48.695Z,26.27
2019-03-23T18:34:16.962Z,25.67
2019-03-23T18:36:46.421Z,26.40
2019-03-23T18:39:26.345Z,26.07
2019-03-23T18:41:50.555Z,26.57
2019-03-23T18:44:18.758Z,26.30
2019-03-23T18:46:47.800Z,26.70
2019-03-23T18:49:16.070Z,25.43
2019-03-23T18:51:44.293Z,25.20
2019-03-23T18:54:12.486Z,26.00
2019-03-23T18:56:40.682Z,27.27
2019-03-23T18:59:09.225Z,26.23
2019-03-23T19:01:39.130Z,24.63
2019-03-23T19:04:07.417Z,27.17
2019-03-23T19:06:35.613Z,25.50
2019-03-23T19:09:05.645Z,24.23
2019-03-23T19:11:33.901Z,25.27
2019-03-23T19:14:02.167Z,27.47
2019-03-23T19:16:30.439Z,24.70
2019-03-23T19:18:58.917Z,25.73
2019-03-23T19:21:27.105Z,25.77
2019-03-23T19:23:56.992Z,25.50
2019-03-23T19:26:25.225Z,24.50
2019-03-23T19:28:53.420Z,24.10
2019-03-23T19:31:21.711Z,26.67
2019-03-23T19:33:49.897Z,25.27
2019-03-23T19:36:18.361Z,27.47
2019-03-23T19:38:46.559Z,26.43
2019-03-23T19:41:14.901Z,25.27
2019-03-23T19:43:48.619Z,27.17
2019-03-23T19:46:13.635Z,25.07
2019-03-23T19:48:42.130Z,25.53
2019-03-23T19:51:11.481Z,26.30
2019-03-23T19:53:39.776Z,25.20
2019-03-23T19:56:10.700Z,30.90
2019-03-23T19:58:41.061Z,27.83
2019-03-23T20:01:09.330Z,27.07
2019-03-23T20:03:37.626Z,26.83
2019-03-23T20:06:05.818Z,26.10
2019-03-23T20:08:34.118Z,26.33
2019-03-23T20:11:02.614Z,25.10
2019-03-23T20:13:31.161Z,26.50
2019-03-23T20:15:59.434Z,27.23
2019-03-23T20:18:27.750Z,25.80
2019-03-23T20:20:56.005Z,26.83
2019-03-23T20:23:24.288Z,25.63
2019-03-23T20:25:52.477Z,25.63
2019-03-23T20:28:20.689Z,24.87
2019-03-23T20:30:48.877Z,27.30
2019-03-23T20:33:19.623Z,27.17
2019-03-23T20:35:47.023Z,27.40
2019-03-23T20:38:16.313Z,27.83
2019-03-23T20:40:44.533Z,27.00
2019-03-23T20:43:12.723Z,26.27
2019-03-23T20:45:41.077Z,26.90
2019-03-23T20:48:09.266Z,26.50
2019-03-23T20:50:38.254Z,26.23
2019-03-23T20:53:07.586Z,27.90
2019-03-23T20:55:36.611Z,30.20
2019-03-23T20:58:04.883Z,30.10
2019-03-23T21:00:34.345Z,29.20
2019-03-23T21:03:04.145Z,28.47
2019-03-23T21:05:34.171Z,27.50
2019-03-23T21:08:02.278Z,27.07
2019-03-23T21:10:30.495Z,26.80
2019-03-23T21:12:58.873Z,27.93
2019-03-23T21:15:27.656Z,26.77
2019-03-23T21:17:55.922Z,26.90
2019-03-23T21:20:24.161Z,26.07
2019-03-23T21:22:52.359Z,26.67
2019-03-23T21:25:20.878Z,26.17
2019-03-23T21:27:49.357Z,27.80
2019-03-23T21:30:19.096Z,28.67
2019-03-23T21:32:47.542Z,27.50
2019-03-23T21:35:16.278Z,28.67
2019-03-23T21:37:44.559Z,28.80
2019-03-23T21:40:12.898Z,27.47
2019-03-23T21:42:41.181Z,28.63
2019-03-23T21:45:10.938Z,29.07
2019-03-23T21:47:39.153Z,28.97
2019-03-23T21:50:07.334Z,30.37
2019-03-23T21:52:36.875Z,30.67
2019-03-23T21:55:05.631Z,28.23
2019-03-23T21:57:33.966Z,28.80
2019-03-23T22:00:02.179Z,29.73
2019-03-23T22:02:30.732Z,28.00
2019-03-23T22:04:59.018Z,28.93
2019-03-23T22:07:27.516Z,27.17
2019-03-23T22:09:57.566Z,27.57
2019-03-23T22:12:25.878Z,28.27
2019-03-23T22:14:54.159Z,28.97
2019-03-23T22:17:22.425Z,27.17
2019-03-23T22:19:51.450Z,26.33
2019-03-23T22:22:19.709Z,25.40
2019-03-23T22:24:48.181Z,27.83
2019-03-23T22:27:18.990Z,27.90
2019-03-23T22:29:46.530Z,25.40
2019-03-23T22:32:14.750Z,25.87
2019-03-23T22:34:43.254Z,29.07
2019-03-23T22:37:11.551Z,26.73
2019-03-23T22:39:39.746Z,27.00
2019-03-23T22:42:07.958Z,29.03
2019-03-23T22:44:37.038Z,27.70
2019-03-23T22:47:05.505Z,28.40
2019-03-23T22:49:33.702Z,27.03
2019-03-23T22:52:02.006Z,27.93
2019-03-23T22:54:30.525Z,27.50
2019-03-23T22:56:58.794Z,29.53
2019-03-23T22:59:27.018Z,28.63
2019-03-23T23:01:55.360Z,27.80
2019-03-23T23:04:23.650Z,28.80
2019-03-23T23:06:51.854Z,26.20
2019-03-23T23:09:20.699Z,27.17
2019-03-23T23:11:48.961Z,27.93
2019-03-23T23:14:17.520Z,32.03
2019-03-23T23:16:46.041Z,27.10
2019-03-23T23:19:15.966Z,28.00
2019-03-23T23:21:44.958Z,27.30
2019-03-23T23:24:15.008Z,27.03
2019-03-23T23:26:43.394Z,27.83
2019-03-23T23:29:11.922Z,28.17
2019-03-23T23:31:40.317Z,28.40
2019-03-23T23:34:08.514Z,27.03
2019-03-23T23:36:37.101Z,28.50
2019-03-23T23:39:06.262Z,29.40
2019-03-23T23:41:35.371Z,28.27
2019-03-23T23:44:03.914Z,27.63
2019-03-23T23:46:32.203Z,28.50
2019-03-23T23:49:00.586Z,28.30
2019-03-23T23:51:28.874Z,27.60
2019-03-23T23:53:57.067Z,28.70
2019-03-23T23:56:25.542Z,28.03
2019-03-23T23:58:54.222Z,27.47
